Terminal Aerodrome Forecast
Issued by NWS Jackson, KY

Home | Current Version | Previous Version | Text Only | Print | Product List | Glossary On
Versions: 1 2 3 4 5 6 7 8 9 10 11 12 13 14 15 16 17
643
FTUS43 KJKL 141738
TAFLOZ
TAF
KLOZ 141738Z 1418/1518 VRB05KT P6SM OVC050
     FM141900 12004KT 3SM -SN OVC020
     FM142200 14006KT 1SM -SN OVC010
     FM150300 17006KT 1SM -SN OVC006
     FM151500 16004KT 4SM -RA OVC003=

USA.gov is the U.S. government's official web portal to all federal, state and local government web resources and services.